createdAt,value
2018-11-01T00:01:40.978Z,46.31
2018-11-01T00:04:09.505Z,51.59
2018-11-01T00:06:38.003Z,54.29
2018-11-01T00:09:08.752Z,54.14
2018-11-01T00:11:37.318Z,56.24
2018-11-01T00:14:07.251Z,61.15
2018-11-01T00:16:36.055Z,64.57
2018-11-01T00:19:05.202Z,67.88
2018-11-01T00:21:33.827Z,65.34
2018-11-01T00:24:02.406Z,64.80
2018-11-01T00:26:30.895Z,64.13
2018-11-01T00:28:59.625Z,63.64
2018-11-01T00:31:28.116Z,65.89
2018-11-01T00:33:56.643Z,66.59
2018-11-01T00:36:25.113Z,66.95
2018-11-01T00:38:53.642Z,67.10
2018-11-01T00:41:22.345Z,67.59
2018-11-01T00:43:51.313Z,67.87
2018-11-01T00:46:19.954Z,66.43
2018-11-01T00:48:48.698Z,66.75
2018-11-01T00:51:17.218Z,66.07
2018-11-01T00:53:45.857Z,68.25
2018-11-01T00:56:14.685Z,66.98
2018-11-01T00:58:43.174Z,67.38
2018-11-01T01:01:11.691Z,67.93
2018-11-01T01:03:40.190Z,68.85
2018-11-01T01:06:08.758Z,72.18
2018-11-01T01:08:37.566Z,72.81
2018-11-01T01:11:06.494Z,70.21
2018-11-01T01:13:35.011Z,69.03
2018-11-01T01:16:03.955Z,70.33
2018-11-01T01:18:32.647Z,70.84
2018-11-01T01:21:01.299Z,71.31
2018-11-01T01:23:29.951Z,70.88
2018-11-01T01:25:59.318Z,71.37
2018-11-01T01:28:27.838Z,68.78
2018-11-01T01:30:56.660Z,69.90
2018-11-01T01:33:25.447Z,68.41
2018-11-01T01:35:53.964Z,67.20
2018-11-01T01:38:22.468Z,68.00
2018-11-01T01:40:51.337Z,68.56
2018-11-01T01:43:19.849Z,69.04
2018-11-01T01:45:48.314Z,68.09
2018-11-01T01:48:17.223Z,70.40
2018-11-01T01:50:45.765Z,69.04
2018-11-01T01:53:14.216Z,70.14
2018-11-01T01:55:42.820Z,64.77
2018-11-01T01:58:11.923Z,63.42
2018-11-01T02:00:40.433Z,62.40
2018-11-01T02:03:08.939Z,61.37
2018-11-01T02:05:37.461Z,59.35
2018-11-01T02:08:06.450Z,63.03
2018-11-01T02:10:34.967Z,63.20
2018-11-01T02:13:03.490Z,64.15
2018-11-01T02:15:32.183Z,63.08
2018-11-01T02:18:00.683Z,62.05
2018-11-01T02:20:29.249Z,62.16
2018-11-01T02:22:57.760Z,66.47
2018-11-01T02:25:26.522Z,66.95
2018-11-01T02:28:00.250Z,67.87
2018-11-01T02:30:28.720Z,70.42
2018-11-01T02:32:57.214Z,70.67
2018-11-01T02:35:25.703Z,70.91
2018-11-01T02:37:54.275Z,69.62
2018-11-01T02:40:22.768Z,73.93
2018-11-01T02:42:51.251Z,72.64
2018-11-01T02:45:20.078Z,73.31
2018-11-01T02:47:48.817Z,71.76
2018-11-01T02:50:17.337Z,70.20
2018-11-01T02:52:45.802Z,70.71
2018-11-01T02:55:14.617Z,71.38
2018-11-01T02:57:43.127Z,75.45
2018-11-01T03:00:13.511Z,74.27
2018-11-01T03:02:41.988Z,76.06
2018-11-01T03:05:11.578Z,74.20
2018-11-01T03:07:40.538Z,76.28
2018-11-01T03:10:10.683Z,73.61
2018-11-01T03:12:39.898Z,76.59
2018-11-01T03:15:10.398Z,77.72
2018-11-01T03:17:38.999Z,75.68
2018-11-01T03:20:08.731Z,74.61
2018-11-01T03:22:37.510Z,74.42
2018-11-01T03:25:06.607Z,72.28
2018-11-01T03:27:35.143Z,72.37
2018-11-01T03:30:03.726Z,73.59
2018-11-01T03:32:32.612Z,71.04
2018-11-01T03:35:01.314Z,70.94
2018-11-01T03:37:30.115Z,71.37
2018-11-01T03:39:58.649Z,71.18
2018-11-01T03:42:27.179Z,71.33
2018-11-01T03:44:55.890Z,70.22
2018-11-01T03:47:24.922Z,71.74
2018-11-01T03:49:53.759Z,71.31
2018-11-01T03:52:22.299Z,72.41
2018-11-01T03:54:50.820Z,74.33
2018-11-01T03:57:19.574Z,72.56
2018-11-01T03:59:48.192Z,75.18
2018-11-01T04:02:16.662Z,74.35
2018-11-01T04:04:45.158Z,75.60
2018-11-01T04:07:13.707Z,73.91
2018-11-01T04:09:42.458Z,76.18
2018-11-01T04:12:11.336Z,74.41
2018-11-01T04:14:40.117Z,76.57
2018-11-01T04:17:08.685Z,74.03
2018-11-01T04:19:37.208Z,75.66
2018-11-01T04:22:06.728Z,78.51
2018-11-01T04:24:36.684Z,77.99
2018-11-01T04:27:05.647Z,79.89
2018-11-01T04:29:35.779Z,78.65
2018-11-01T04:32:04.992Z,79.31
2018-11-01T04:34:33.536Z,79.25
2018-11-01T04:37:01.986Z,76.54
2018-11-01T04:39:31.606Z,80.99
2018-11-01T04:42:00.290Z,79.70
2018-11-01T04:44:28.742Z,78.50
2018-11-01T04:46:57.278Z,78.15
2018-11-01T04:49:25.735Z,79.41
2018-11-01T04:51:54.232Z,79.24
2018-11-01T04:54:22.752Z,81.13
2018-11-01T04:56:51.222Z,79.76
2018-11-01T04:59:19.665Z,78.53
2018-11-01T05:01:48.224Z,80.21
2018-11-01T05:04:16.704Z,79.38
2018-11-01T05:06:45.283Z,76.86
2018-11-01T05:09:14.062Z,78.27
2018-11-01T05:11:42.548Z,78.97
2018-11-01T05:14:11.144Z,81.68
2018-11-01T05:16:39.600Z,83.54
2018-11-01T05:19:08.224Z,82.81
2018-11-01T05:21:36.704Z,80.34
2018-11-01T05:24:05.859Z,75.94
2018-11-01T05:26:34.895Z,74.78
2018-11-01T05:29:03.599Z,74.86
2018-11-01T05:31:32.373Z,80.38
2018-11-01T05:34:00.948Z,81.44
2018-11-01T05:36:29.441Z,80.68
2018-11-01T05:38:57.907Z,84.68
2018-11-01T05:41:26.398Z,83.06
2018-11-01T05:43:54.844Z,81.65
2018-11-01T05:46:23.612Z,82.89
2018-11-01T05:48:52.088Z,79.28
2018-11-01T05:51:20.587Z,79.36
2018-11-01T05:53:49.269Z,79.92
2018-11-01T05:56:17.741Z,78.66
2018-11-01T05:58:46.311Z,79.96
2018-11-01T06:01:18.930Z,78.69
2018-11-01T06:03:47.437Z,75.84
2018-11-01T06:06:15.917Z,75.56
2018-11-01T06:08:46.231Z,74.24
2018-11-01T06:11:14.788Z,75.52
2018-11-01T06:13:43.240Z,73.73
2018-11-01T06:16:12.396Z,72.77
2018-11-01T06:18:41.194Z,72.53
2018-11-01T06:21:09.682Z,74.84
2018-11-01T06:23:38.215Z,75.07
2018-11-01T06:26:06.779Z,74.14
2018-11-01T06:28:35.276Z,72.75
2018-11-01T06:31:03.748Z,72.75
2018-11-01T06:33:32.246Z,72.79
2018-11-01T06:36:03.600Z,74.59
2018-11-01T06:38:32.388Z,73.87
2018-11-01T06:41:01.087Z,74.17
2018-11-01T06:43:29.594Z,72.62
2018-11-01T06:45:58.137Z,71.39
2018-11-01T06:48:26.668Z,69.41
2018-11-01T06:50:55.164Z,69.50
2018-11-01T06:53:23.620Z,67.08
2018-11-01T06:55:52.447Z,70.97
2018-11-01T06:58:20.969Z,74.32
2018-11-01T07:00:49.417Z,74.43
2018-11-01T07:03:17.916Z,73.82
2018-11-01T07:05:46.484Z,66.61
2018-11-01T07:08:14.863Z,65.20
2018-11-01T07:10:43.343Z,65.67
2018-11-01T07:13:11.813Z,63.77
2018-11-01T07:15:40.366Z,61.57
2018-11-01T07:18:09.413Z,60.53
2018-11-01T07:20:37.912Z,58.94
2018-11-01T07:23:06.788Z,59.71
2018-11-01T07:25:35.319Z,57.01
2018-11-01T07:28:04.041Z,55.18
2018-11-01T07:30:32.561Z,59.77
2018-11-01T07:33:01.240Z,62.14
2018-11-01T07:35:29.685Z,58.46
2018-11-01T07:37:58.287Z,60.67
2018-11-01T07:40:27.066Z,58.08
2018-11-01T07:42:55.813Z,60.20
2018-11-01T07:45:24.314Z,59.05
2018-11-01T07:47:53.333Z,58.66
2018-11-01T07:50:21.827Z,58.98
2018-11-01T07:52:50.643Z,56.63
2018-11-01T07:55:19.342Z,57.89
2018-11-01T07:57:47.982Z,55.72
2018-11-01T08:00:17.757Z,53.16
2018-11-01T08:02:47.165Z,55.10
2018-11-01T08:05:16.319Z,55.36
2018-11-01T08:07:44.869Z,51.84
2018-11-01T08:10:16.443Z,51.37
2018-11-01T08:12:45.883Z,50.39
2018-11-01T08:15:16.686Z,50.26
2018-11-01T08:17:45.172Z,48.78
2018-11-01T08:20:14.761Z,48.84
2018-11-01T08:22:43.393Z,47.27
2018-11-01T08:25:12.867Z,48.38
2018-11-01T08:27:42.009Z,46.97
2018-11-01T08:30:13.024Z,46.54
2018-11-01T08:32:41.574Z,47.87
2018-11-01T08:35:10.847Z,47.81
2018-11-01T08:37:40.130Z,47.45
2018-11-01T08:40:09.663Z,47.98
2018-11-01T08:42:38.620Z,45.89
2018-11-01T08:45:09.572Z,46.34
2018-11-01T08:47:38.584Z,46.78
2018-11-01T08:50:08.622Z,48.31
2018-11-01T08:52:37.459Z,47.54
2018-11-01T08:55:07.305Z,46.33
2018-11-01T08:57:35.759Z,46.01
2018-11-01T09:00:04.370Z,45.51
2018-11-01T09:02:32.852Z,45.08
2018-11-01T09:05:02.225Z,44.29
2018-11-01T09:07:30.992Z,45.06
2018-11-01T09:09:59.396Z,45.75
2018-11-01T09:12:27.844Z,45.80
2018-11-01T09:14:56.403Z,47.34
2018-11-01T09:17:24.929Z,45.70
2018-11-01T09:19:53.435Z,45.06
2018-11-01T09:22:21.877Z,43.99
2018-11-01T09:24:50.582Z,44.29
2018-11-01T09:27:19.086Z,42.59
2018-11-01T09:29:47.576Z,43.21
2018-11-01T09:32:16.084Z,42.17
2018-11-01T09:34:44.668Z,40.88
2018-11-01T09:37:13.090Z,43.15
2018-11-01T09:39:41.625Z,41.77
2018-11-01T09:42:10.104Z,39.01
2018-11-01T09:44:38.788Z,39.68
2018-11-01T09:47:07.611Z,40.43
2018-11-01T09:49:35.816Z,40.83
2018-11-01T09:52:04.320Z,40.62
2018-11-01T09:54:32.935Z,40.53
2018-11-01T09:57:01.605Z,40.10
2018-11-01T09:59:30.072Z,38.84
2018-11-01T10:01:58.592Z,37.92
2018-11-01T10:05:30.048Z,38.70
2018-11-01T10:07:58.737Z,38.36
2018-11-01T10:10:27.224Z,37.40
2018-11-01T10:12:55.767Z,38.24
2018-11-01T10:15:24.455Z,39.71
2018-11-01T10:17:53.320Z,38.32
2018-11-01T10:20:21.412Z,37.71
2018-11-01T10:22:50.022Z,38.13
2018-11-01T10:25:18.700Z,36.75
2018-11-01T10:27:47.262Z,37.75
2018-11-01T10:30:17.498Z,37.31
2018-11-01T10:32:46.502Z,38.55
2018-11-01T10:35:15.991Z,37.68
2018-11-01T10:37:44.488Z,37.07
2018-11-01T10:40:15.176Z,36.91
2018-11-01T10:42:43.760Z,38.71
2018-11-01T10:45:12.267Z,36.51
2018-11-01T10:47:40.903Z,37.45
2018-11-01T10:50:14.465Z,34.39
2018-11-01T10:52:43.143Z,34.36
2018-11-01T10:55:12.630Z,36.37
2018-11-01T10:57:41.376Z,36.58
2018-11-01T11:00:16.244Z,35.48
2018-11-01T11:02:47.036Z,35.62
2018-11-01T11:05:17.860Z,34.61
2018-11-01T11:07:46.784Z,34.80
2018-11-01T11:10:16.368Z,36.95
2018-11-01T11:12:44.833Z,35.19
2018-11-01T11:15:13.623Z,37.33
2018-11-01T11:17:42.061Z,37.16
2018-11-01T11:20:11.863Z,33.72
2018-11-01T11:22:40.517Z,32.92
2018-11-01T11:25:10.648Z,33.74
2018-11-01T11:27:39.496Z,34.75
2018-11-01T11:30:09.282Z,35.66
2018-11-01T11:32:38.345Z,33.85
2018-11-01T11:35:07.363Z,33.12
2018-11-01T11:37:36.298Z,35.43
2018-11-01T11:40:05.421Z,34.28
2018-11-01T11:42:33.918Z,34.93
2018-11-01T11:45:02.414Z,35.04
2018-11-01T11:47:30.944Z,34.50
2018-11-01T11:49:59.407Z,35.92
2018-11-01T11:52:27.878Z,35.21
2018-11-01T11:54:56.636Z,35.12
2018-11-01T11:57:25.080Z,35.76
2018-11-01T11:59:53.555Z,36.52
2018-11-01T12:02:22.013Z,35.62
2018-11-01T12:04:50.539Z,36.46
2018-11-01T12:07:19.137Z,35.98
2018-11-01T12:09:47.643Z,36.40
2018-11-01T12:12:16.120Z,36.32
2018-11-01T12:14:44.572Z,35.48
2018-11-01T12:17:13.516Z,35.74
2018-11-01T12:19:42.287Z,37.01
2018-11-01T12:22:10.807Z,36.29
2018-11-01T12:24:39.271Z,34.87
2018-11-01T12:27:07.739Z,36.84
2018-11-01T12:29:36.435Z,37.12
2018-11-01T12:32:05.136Z,37.89
2018-11-01T12:34:33.831Z,37.50
2018-11-01T12:37:02.488Z,36.57
2018-11-01T12:39:31.340Z,37.26
2018-11-01T12:41:59.812Z,37.19
2018-11-01T12:44:28.499Z,37.37
2018-11-01T12:46:57.192Z,37.12
2018-11-01T12:49:25.924Z,37.31
2018-11-01T12:51:54.635Z,38.20
2018-11-01T12:54:23.442Z,36.48
2018-11-01T12:56:52.183Z,37.17
2018-11-01T12:59:20.738Z,37.08
2018-11-01T13:01:49.624Z,36.68
2018-11-01T13:04:18.087Z,36.79
2018-11-01T13:06:46.919Z,37.35
2018-11-01T13:09:15.358Z,37.10
2018-11-01T13:11:44.380Z,38.43
2018-11-01T13:14:13.143Z,37.94
2018-11-01T13:16:41.885Z,38.13
2018-11-01T13:19:10.367Z,37.83
2018-11-01T13:21:38.831Z,37.67
2018-11-01T13:24:07.519Z,36.41
2018-11-01T13:26:36.167Z,34.96
2018-11-01T13:29:05.136Z,36.24
2018-11-01T13:31:34.121Z,38.15
2018-11-01T13:34:02.670Z,37.29
2018-11-01T13:36:31.198Z,38.46
2018-11-01T13:38:59.661Z,37.04
2018-11-01T13:41:28.160Z,37.41
2018-11-01T13:43:56.770Z,36.74
2018-11-01T13:46:25.543Z,37.38
2018-11-01T13:48:54.000Z,37.29
2018-11-01T13:51:22.504Z,38.46
2018-11-01T13:53:50.965Z,38.66
2018-11-01T13:56:19.505Z,38.85
2018-11-01T13:58:48.016Z,39.03
2018-11-01T14:01:16.878Z,40.81
2018-11-01T14:03:45.343Z,39.49
2018-11-01T14:06:13.820Z,39.50
2018-11-01T14:08:42.287Z,39.92
2018-11-01T14:11:10.999Z,41.57
2018-11-01T14:13:39.711Z,41.54
2018-11-01T14:16:08.207Z,42.04
2018-11-01T14:18:36.668Z,41.97
2018-11-01T14:21:05.151Z,41.55
2018-11-01T14:23:33.632Z,41.89
2018-11-01T14:26:02.108Z,41.32
2018-11-01T14:28:31.023Z,42.32
2018-11-01T14:30:59.928Z,41.97
2018-11-01T14:33:28.620Z,42.17
2018-11-01T14:35:57.115Z,43.05
2018-11-01T14:38:25.588Z,42.54
2018-11-01T14:40:54.058Z,42.40
2018-11-01T14:43:22.511Z,43.05
2018-11-01T14:45:51.940Z,42.63
2018-11-01T14:48:20.453Z,42.02
2018-11-01T14:50:49.394Z,42.68
2018-11-01T14:53:18.729Z,42.39
2018-11-01T14:55:47.901Z,44.11
2018-11-01T14:58:16.103Z,43.21
2018-11-01T15:00:43.423Z,43.23
2018-11-01T15:03:11.952Z,42.87
2018-11-01T15:05:40.446Z,43.52
2018-11-01T15:08:08.930Z,43.97
2018-11-01T15:10:37.567Z,44.47
2018-11-01T15:13:06.644Z,43.37
2018-11-01T15:15:35.101Z,44.71
2018-11-01T15:18:03.588Z,44.71
2018-11-01T15:20:32.300Z,45.03
2018-11-01T15:23:00.803Z,45.54
2018-11-01T15:25:29.312Z,45.55
2018-11-01T15:27:58.032Z,45.58
2018-11-01T15:30:26.526Z,45.51
2018-11-01T15:32:55.142Z,45.16
2018-11-01T15:35:23.590Z,44.92
2018-11-01T15:37:52.072Z,46.53
2018-11-01T15:40:20.643Z,46.02
2018-11-01T15:42:49.138Z,46.31
2018-11-01T15:45:17.602Z,46.05
2018-11-01T15:47:46.094Z,45.92
2018-11-01T15:50:15.247Z,46.01
2018-11-01T15:52:43.961Z,45.98
2018-11-01T15:55:12.441Z,45.91
2018-11-01T15:57:40.882Z,45.48
2018-11-01T16:00:11.282Z,44.64
2018-11-01T16:02:41.156Z,44.99
2018-11-01T16:05:10.145Z,45.26
2018-11-01T16:07:39.007Z,45.60
2018-11-01T16:10:08.600Z,44.85
2018-11-01T16:12:37.609Z,45.70
2018-11-01T16:15:08.352Z,44.11
2018-11-01T16:17:36.807Z,45.27
2018-11-01T16:20:05.670Z,44.64
2018-11-01T16:22:34.450Z,46.07
2018-11-01T16:25:03.349Z,45.25
2018-11-01T16:27:31.810Z,44.79
2018-11-01T16:30:00.373Z,45.47
2018-11-01T16:32:28.849Z,44.92
2018-11-01T16:34:57.477Z,44.12
2018-11-01T16:37:26.009Z,43.09
2018-11-01T16:39:54.624Z,45.05
2018-11-01T16:42:23.198Z,44.65
2018-11-01T16:44:51.590Z,43.48
2018-11-01T16:47:20.076Z,44.67
2018-11-01T16:49:48.765Z,44.14
2018-11-01T16:52:17.291Z,44.17
2018-11-01T16:54:45.760Z,44.66
2018-11-01T16:57:14.263Z,44.62
2018-11-01T16:59:42.764Z,44.16
2018-11-01T17:02:11.232Z,45.08
2018-11-01T17:04:40.012Z,44.27
2018-11-01T17:07:09.435Z,45.53
2018-11-01T17:09:37.924Z,46.10
2018-11-01T17:12:06.735Z,46.27
2018-11-01T17:14:35.340Z,44.73
2018-11-01T17:17:03.823Z,45.84
2018-11-01T17:19:32.540Z,45.02
2018-11-01T17:22:01.600Z,44.60
2018-11-01T17:24:30.298Z,46.41
2018-11-01T17:26:59.033Z,44.61
2018-11-01T17:29:28.031Z,45.03
2018-11-01T17:31:56.653Z,46.58
2018-11-01T17:34:25.223Z,44.82
2018-11-01T17:36:53.720Z,46.39
2018-11-01T17:39:22.258Z,45.20
2018-11-01T17:41:50.765Z,44.34
2018-11-01T17:44:19.483Z,45.65
2018-11-01T17:46:48.313Z,45.69
2018-11-01T17:49:17.119Z,46.48
2018-11-01T17:51:45.624Z,46.59
2018-11-01T17:54:14.785Z,44.19
2018-11-01T17:56:44.624Z,44.89
2018-11-01T17:59:13.507Z,45.19
2018-11-01T18:01:42.309Z,46.54
2018-11-01T18:04:11.511Z,47.27
2018-11-01T18:06:40.438Z,47.26
2018-11-01T18:09:12.076Z,46.61
2018-11-01T18:11:40.596Z,47.28
2018-11-01T18:14:09.598Z,45.22
2018-11-01T18:16:38.735Z,48.66
2018-11-01T18:19:07.495Z,47.45
2018-11-01T18:21:36.023Z,45.97
2018-11-01T18:24:05.587Z,48.14
2018-11-01T18:26:34.305Z,48.49
2018-11-01T18:29:02.925Z,48.09
2018-11-01T18:31:31.472Z,47.18
2018-11-01T18:34:00.039Z,47.45
2018-11-01T18:36:28.812Z,46.48
2018-11-01T18:38:57.432Z,46.23
2018-11-01T18:41:26.329Z,46.47
2018-11-01T18:43:54.848Z,45.54
2018-11-01T18:46:23.626Z,46.51
2018-11-01T18:48:52.131Z,46.72
2018-11-01T18:51:20.621Z,46.87
2018-11-01T18:53:49.133Z,48.11
2018-11-01T18:56:17.775Z,47.62
2018-11-01T18:58:46.259Z,46.44
2018-11-01T19:01:14.899Z,47.95
2018-11-01T19:03:43.406Z,46.74
2018-11-01T19:06:12.345Z,47.21
2018-11-01T19:08:40.848Z,47.97
2018-11-01T19:11:09.379Z,48.48
2018-11-01T19:13:38.000Z,47.30
2018-11-01T19:16:06.499Z,46.85
2018-11-01T19:18:34.904Z,47.94
2018-11-01T19:21:03.343Z,46.62
2018-11-01T19:23:31.887Z,47.18
2018-11-01T19:26:00.389Z,47.72
2018-11-01T19:28:28.981Z,47.06
2018-11-01T19:30:57.729Z,46.81
2018-11-01T19:33:26.676Z,47.56
2018-11-01T19:35:55.199Z,48.63
2018-11-01T19:38:23.878Z,47.89
2018-11-01T19:40:52.359Z,49.43
2018-11-01T19:43:20.862Z,50.16
2018-11-01T19:45:49.688Z,49.50
2018-11-01T19:48:18.250Z,49.30
2018-11-01T19:50:47.015Z,49.75
2018-11-01T19:53:15.508Z,48.59
2018-11-01T19:55:44.335Z,49.28
2018-11-01T19:58:12.885Z,48.30
2018-11-01T20:00:41.399Z,48.37
2018-11-01T20:03:09.903Z,49.25
2018-11-01T20:05:38.873Z,47.97
2018-11-01T20:08:07.410Z,50.40
2018-11-01T20:10:35.935Z,50.00
2018-11-01T20:13:04.475Z,51.03
2018-11-01T20:15:33.002Z,50.17
2018-11-01T20:18:01.496Z,48.82
2018-11-01T20:20:30.256Z,50.43
2018-11-01T20:22:59.707Z,49.20
2018-11-01T20:25:28.223Z,50.44
2018-11-01T20:27:56.754Z,49.97
2018-11-01T20:30:25.249Z,51.25
2018-11-01T20:32:53.783Z,50.86
2018-11-01T20:35:22.518Z,49.95
2018-11-01T20:37:51.129Z,49.88
2018-11-01T20:40:19.897Z,51.07
2018-11-01T20:42:48.362Z,52.32
2018-11-01T20:45:16.903Z,51.75
2018-11-01T20:47:45.460Z,51.59
2018-11-01T20:50:14.980Z,54.26
2018-11-01T20:52:43.473Z,55.46
2018-11-01T20:55:12.024Z,57.29
2018-11-01T20:57:40.616Z,58.86
2018-11-01T21:00:10.983Z,55.12
2018-11-01T21:02:40.066Z,55.61
2018-11-01T21:05:09.134Z,54.62
2018-11-01T21:07:37.536Z,56.14
2018-11-01T21:10:07.377Z,60.82
2018-11-01T21:12:36.244Z,60.32
2018-11-01T21:15:05.996Z,61.55
2018-11-01T21:17:34.491Z,61.85
2018-11-01T21:20:03.291Z,62.08
2018-11-01T21:22:31.734Z,61.02
2018-11-01T21:25:00.388Z,63.14
2018-11-01T21:27:28.908Z,62.92
2018-11-01T21:29:57.487Z,62.41
2018-11-01T21:32:26.004Z,62.76
2018-11-01T21:34:54.563Z,63.63
2018-11-01T21:37:23.402Z,63.36
2018-11-01T21:39:51.872Z,65.81
2018-11-01T21:42:20.519Z,65.42
2018-11-01T21:44:49.351Z,66.49
2018-11-01T21:47:17.835Z,68.16
2018-11-01T21:49:46.340Z,70.74
2018-11-01T21:52:14.852Z,71.90
2018-11-01T21:54:43.646Z,73.34
2018-11-01T21:57:12.131Z,74.79
2018-11-01T21:59:40.617Z,76.12
2018-11-01T22:02:09.120Z,76.73
2018-11-01T22:04:37.667Z,76.89
2018-11-01T22:07:06.604Z,77.85
2018-11-01T22:09:36.184Z,76.65
2018-11-01T22:12:05.444Z,77.58
2018-11-01T22:14:33.964Z,78.50
2018-11-01T22:17:02.664Z,77.95
2018-11-01T22:19:31.463Z,77.79
2018-11-01T22:21:59.964Z,76.85
2018-11-01T22:24:28.461Z,76.96
2018-11-01T22:26:57.200Z,76.00
2018-11-01T22:29:25.735Z,76.66
2018-11-01T22:31:54.203Z,77.02
2018-11-01T22:34:23.092Z,76.98
2018-11-01T22:36:51.582Z,78.37
2018-11-01T22:39:20.041Z,78.53
2018-11-01T22:41:48.551Z,79.76
2018-11-01T22:44:17.005Z,77.99
2018-11-01T22:46:45.650Z,78.69
2018-11-01T22:49:14.099Z,78.27
2018-11-01T22:51:42.692Z,79.58
2018-11-01T22:54:11.169Z,79.23
2018-11-01T22:56:39.683Z,79.32
2018-11-01T22:59:08.322Z,78.92
2018-11-01T23:01:36.815Z,80.81
2018-11-01T23:04:05.695Z,81.41
2018-11-01T23:06:34.184Z,79.61
2018-11-01T23:09:03.303Z,82.89
2018-11-01T23:11:31.782Z,81.97
2018-11-01T23:14:00.301Z,82.73
2018-11-01T23:16:28.755Z,81.26
2018-11-01T23:18:57.174Z,82.28
2018-11-01T23:21:25.680Z,82.90
2018-11-01T23:23:54.272Z,83.03
2018-11-01T23:26:22.855Z,83.62
2018-11-01T23:28:51.548Z,84.86
2018-11-01T23:31:20.035Z,84.15
2018-11-01T23:33:48.529Z,83.81
2018-11-01T23:36:16.232Z,84.33
2018-11-01T23:38:49.934Z,84.08
2018-11-01T23:41:23.713Z,83.57
2018-11-01T23:43:57.383Z,84.12
2018-11-01T23:46:31.255Z,84.13
2018-11-01T23:49:16.462Z,82.97
2018-11-01T23:51:51.599Z,83.60
2018-11-01T23:54:20.100Z,83.77
2018-11-01T23:56:48.945Z,83.83
2018-11-01T23:59:17.452Z,83.55
